St John's International Airport

Airport
ICAO code: 
CYYT
IATA Code: 
YTT
Summary
ICAO Region: 
NAM
Territory: 
Location: 
St John's, Newfoundland,
Serving: 
St John's
Elevation: 
461 ft
Coordinates: 
Aerial View: 
47° 37' 7" N, 52° 45' 6.998" W
Metar
Observation
CYYT 030700Z 17022G29KT 8SM -RA OVC002 05/05 A2997 RMK SF8 SLP155
Station
St. John's, Nfld
Date/Time
2021-12-03 07:00:00
Wind direction
170°
Wind speed
22 kts
Lowest cloud amount
overcast
Temperature
5°C
Dew point
5°C
Humidity
100%
Weather condition
light rain

Description

St. John's International Airport is an international airport located 3 nm northwest of St. John's, Newfoundland and Labrador, Canada that serves the St. John's Metro Area and the Avalon Peninsula.

Climatology

Humid Continental climate (Köppen climate classification Dfb) - Variable weather patterns and a large seasonal temperature variance. Summers are often warm and humid with frequent thunderstorms and winters can be very cold with frequent snowfall and persistent snow cover.

The separate article climate Newfoundland contains more detail on the climate of Newfoundland and associated weather phenomena.

Runways

Designator Length Width Surface Rops
2/20 1533 30 ASP Yes/Yes
16/34 2135 61 ASP Yes/Yes
11/29 2591 61 ASP Yes/Yes
Airport map: 
Aerial View: 

Accidents and Serious Incidents at or in the vicinity of CYYT

SKYbrary Partners:

Safety knowledge contributed by: